Time;durP1;ratioP1;P1;durP2;ratioP2;P2;SDS_P1;SDS_P2;PMS_P1;PMS_P2;Temp;Humidity;BMP_temperature;BMP_pressure;BME280_temperature;BME280_humidity;BME280_pressure;Samples;Min_cycle;Max_cycle;Signal;HPM_P1;HPM_P2
2021/03/06 00:02:15;;;;;;;0.20;0.20;;;-0.40;99.90;;;;;;5017157;28;20045;-79
2021/03/06 00:04:41;;;;;;;0.57;0.57;;;-0.40;99.90;;;;;;5035586;28;20029;-74
2021/03/06 00:07:07;;;;;;;0.20;0.20;;;-0.40;99.90;;;;;;5035775;28;20348;-77
2021/03/06 00:09:32;;;;;;;2.47;0.87;;;-0.40;99.90;;;;;;5034759;28;20141;-73
2021/03/06 00:11:58;;;;;;;0.50;0.50;;;-0.50;99.90;;;;;;5033603;28;20025;-76
2021/03/06 00:14:24;;;;;;;1.07;0.43;;;-0.60;99.90;;;;;;5035760;28;20040;-74
2021/03/06 00:16:50;;;;;;;0.60;0.60;;;-0.60;99.90;;;;;;5033631;28;20018;-75
2021/03/06 00:19:15;;;;;;;3.10;1.17;;;-0.70;99.90;;;;;;5014315;28;20061;-78
2021/03/06 00:21:41;;;;;;;2.47;2.27;;;-0.70;99.90;;;;;;5035707;28;20416;-74
2021/03/06 00:24:07;;;;;;;0.40;0.20;;;-0.70;99.90;;;;;;5018440;28;20033;-75
2021/03/06 00:26:33;;;;;;;0.85;0.85;;;-0.60;99.90;;;;;;5036004;28;20475;-75
2021/03/06 00:28:58;;;;;;;1.57;1.47;;;-0.60;99.90;;;;;;5026231;28;20043;-75
2021/03/06 00:31:24;;;;;;;1.40;1.30;;;-0.50;99.90;;;;;;5030323;28;20025;-76
2021/03/06 00:33:51;;;;;;;0.30;0.30;;;-0.50;99.90;;;;;;5035097;28;20034;-76
2021/03/06 00:36:17;;;;;;;0.47;0.47;;;-0.50;99.90;;;;;;5018567;28;20025;-75
2021/03/06 00:38:43;;;;;;;1.93;0.80;;;-0.50;99.90;;;;;;5030494;28;20036;-74
2021/03/06 00:41:08;;;;;;;1.50;1.20;;;-0.50;99.90;;;;;;5008017;28;20030;-77
2021/03/06 00:43:34;;;;;;;1.70;1.60;;;-0.60;99.90;;;;;;5013665;28;20037;-73
2021/03/06 00:46:00;;;;;;;2.00;1.90;;;-0.60;99.90;;;;;;5015109;28;20068;-74
2021/03/06 00:48:26;;;;;;;5.53;2.90;;;-0.60;99.90;;;;;;5029884;28;20072;-73
2021/03/06 00:50:51;;;;;;;0.33;0.33;;;-0.60;99.90;;;;;;5034515;28;20416;-74
2021/03/06 00:53:17;;;;;;;2.90;2.63;;;-0.60;99.90;;;;;;5017382;28;20061;-73
2021/03/06 00:55:43;;;;;;;0.77;0.77;;;-0.70;99.90;;;;;;5034555;28;20025;-73
2021/03/06 00:58:08;;;;;;;4.00;0.33;;;-0.60;99.90;;;;;;5035504;28;20037;-74
2021/03/06 01:00:34;;;;;;;2.10;2.00;;;-0.60;99.90;;;;;;5012390;28;20050;-74
2021/03/06 01:03:00;;;;;;;0.23;0.23;;;-0.70;99.90;;;;;;5031385;28;20068;-72
2021/03/06 01:05:26;;;;;;;0.17;0.17;;;-0.70;99.90;;;;;;5035380;28;20120;-74
2021/03/06 01:07:51;;;;;;;5.40;0.87;;;-0.80;99.90;;;;;;5034565;28;20108;-74
2021/03/06 01:10:25;;;;;;;0.10;0.10;;;-0.80;99.90;;;;;;5014915;28;20396;-78
2021/03/06 01:12:51;;;;;;;0.63;0.63;;;-0.80;99.90;;;;;;5017069;28;20057;-73
2021/03/06 01:15:17;;;;;;;0.43;0.43;;;-0.90;99.90;;;;;;5017308;28;20104;-74
2021/03/06 01:17:42;;;;;;;0.47;0.47;;;-0.90;99.90;;;;;;5027772;28;20033;-73
2021/03/06 01:20:09;;;;;;;0.20;0.20;;;-1.00;99.90;;;;;;5033528;28;20075;-73
2021/03/06 01:22:35;;;;;;;0.20;0.20;;;-0.90;99.90;;;;;;5016827;28;20122;-74
2021/03/06 01:25:01;;;;;;;0.55;0.55;;;-0.80;99.90;;;;;;5016928;28;20417;-73
2021/03/06 01:27:27;;;;;;;0.73;0.33;;;-0.90;99.90;;;;;;5031457;28;20129;-73
2021/03/06 01:29:53;;;;;;;0.40;0.40;;;-1.00;99.90;;;;;;5028425;28;20132;-73
2021/03/06 01:32:18;;;;;;;0.20;0.20;;;-1.10;99.90;;;;;;5024905;28;20444;-79
2021/03/06 01:34:44;;;;;;;0.30;0.30;;;-1.20;99.90;;;;;;5034331;28;20022;-73
2021/03/06 01:37:10;;;;;;;0.33;0.33;;;-1.20;99.90;;;;;;5034899;28;20026;-73
2021/03/06 01:39:35;;;;;;;0.30;0.30;;;-1.20;99.90;;;;;;5012258;28;20436;-73
2021/03/06 01:42:01;;;;;;;0.30;0.30;;;-1.20;99.90;;;;;;5033546;28;20033;-73
2021/03/06 01:44:27;;;;;;;0.47;0.30;;;-1.20;99.90;;;;;;5007622;28;20025;-73
2021/03/06 01:46:53;;;;;;;0.40;0.40;;;-1.30;99.90;;;;;;5034556;28;20040;-72
2021/03/06 01:49:18;;;;;;;0.30;0.30;;;-1.50;99.90;;;;;;5032678;28;20038;-73
2021/03/06 01:51:44;;;;;;;0.30;0.30;;;-1.60;99.90;;;;;;5027156;28;20025;-73
2021/03/06 01:54:11;;;;;;;0.20;0.20;;;-1.60;99.90;;;;;;5028456;28;20026;-73
2021/03/06 01:56:37;;;;;;;;;;;-1.60;99.90;;;;;;5035466;28;20061;-72
2021/03/06 01:59:03;;;;;;;0.70;0.70;;;-1.60;99.90;;;;;;5013550;28;20002;-73
2021/03/06 02:01:31;;;;;;;0.30;0.30;;;-1.60;99.90;;;;;;5029426;28;20459;-72
2021/03/06 02:03:59;;;;;;;0.13;0.13;;;-1.60;99.90;;;;;;5033532;28;20075;-72
2021/03/06 02:06:25;;;;;;;0.10;0.10;;;-1.50;99.90;;;;;;5033629;28;20099;-72
2021/03/06 02:08:51;;;;;;;1.20;0.45;;;-1.50;99.90;;;;;;5033008;28;20049;-73
2021/03/06 02:11:57;;;;;;;0.70;0.70;;;-1.50;99.90;;;;;;5033420;28;20026;-74
2021/03/06 02:14:38;;;;;;;0.40;0.40;;;-1.50;99.90;;;;;;5015848;28;20049;-72
2021/03/06 02:17:14;;;;;;;0.35;0.35;;;-1.70;99.90;;;;;;5033617;28;20089;-73
2021/03/06 02:20:13;;;;;;;0.20;0.20;;;-2.00;99.90;;;;;;5029686;28;20025;-72
2021/03/06 02:23:09;;;;;;;0.30;0.30;;;-1.90;99.90;;;;;;5032950;28;20037;-72
2021/03/06 02:25:54;;;;;;;0.43;0.43;;;-1.80;99.90;;;;;;5030628;28;20112;-71
2021/03/06 02:28:38;;;;;;;3.55;1.38;;;-1.80;99.90;;;;;;5015129;28;20048;-72
2021/03/06 02:31:05;;;;;;;1.27;1.17;;;-1.90;99.90;;;;;;5014633;28;20351;-72
2021/03/06 02:33:35;;;;;;;0.50;0.50;;;-1.90;99.90;;;;;;5033155;28;20029;-71
2021/03/06 02:36:07;;;;;;;0.20;0.20;;;-1.90;99.90;;;;;;5032772;28;20480;-71
2021/03/06 02:38:36;;;;;;;0.35;0.35;;;-1.90;99.90;;;;;;5028100;28;20034;-72
2021/03/06 02:41:03;;;;;;;0.50;0.50;;;-1.90;99.90;;;;;;5030222;28;20309;-71
2021/03/06 02:43:29;;;;;;;;;;;-1.90;99.90;;;;;;5033260;28;20436;-71
2021/03/06 02:45:56;;;;;;;0.30;0.30;;;-1.90;99.90;;;;;;5015040;28;19939;-71
2021/03/06 02:48:23;;;;;;;0.35;0.35;;;-1.90;99.90;;;;;;5015319;28;20041;-72
2021/03/06 02:50:53;;;;;;;0.38;0.38;;;-1.80;99.90;;;;;;5030184;28;20057;-71
2021/03/06 02:53:20;;;;;;;0.60;0.60;;;-1.80;99.90;;;;;;5033024;28;20026;-71
2021/03/06 02:55:46;;;;;;;0.45;0.40;;;-1.80;99.90;;;;;;5033003;28;20297;-71
2021/03/06 02:58:50;;;;;;;0.30;0.30;;;-1.80;99.90;;;;;;5031552;28;20116;-71
2021/03/06 03:01:34;;;;;;;0.57;0.57;;;-1.90;99.90;;;;;;5027330;28;20092;-72
2021/03/06 03:04:12;;;;;;;0.35;0.35;;;-1.90;99.90;;;;;;5012974;28;20029;-72
2021/03/06 03:06:41;;;;;;;0.75;0.75;;;-1.90;99.90;;;;;;5014449;28;20428;-71
2021/03/06 03:09:19;;;;;;;0.55;0.47;;;-1.90;99.90;;;;;;5032661;28;20104;-71
2021/03/06 03:12:02;;;;;;;1.88;0.60;;;-2.00;99.90;;;;;;5027549;28;20045;-71
2021/03/06 03:14:54;;;;;;;0.82;0.82;;;-2.00;99.90;;;;;;5036413;28;20355;-70
2021/03/06 03:17:26;;;;;;;0.65;0.65;;;-2.00;99.90;;;;;;5024460;28;20086;-71
2021/03/06 03:20:13;;;;;;;0.20;0.20;;;-2.00;99.90;;;;;;5034604;28;20324;-71
2021/03/06 03:22:45;;;;;;;0.77;0.77;;;-2.00;99.90;;;;;;5031108;28;20531;-71
2021/03/06 03:25:13;;;;;;;0.63;0.60;;;-2.00;99.90;;;;;;5035836;28;20067;-71
2021/03/06 03:27:41;;;;;;;0.50;0.50;;;-2.10;99.90;;;;;;5036117;28;20360;-71
2021/03/06 03:30:19;;;;;;;0.28;0.28;;;-2.10;99.90;;;;;;5012752;28;20072;-71
2021/03/06 03:32:45;;;;;;;0.65;0.65;;;-2.20;99.90;;;;;;5014039;28;20305;-71
2021/03/06 03:35:13;;;;;;;;;;;-2.20;99.90;;;;;;5036639;28;20105;-71
2021/03/06 03:37:41;;;;;;;0.63;0.63;;;-2.20;99.90;;;;;;5018449;28;19995;-71
2021/03/06 03:40:10;;;;;;;0.80;0.80;;;-2.10;99.90;;;;;;5025968;28;20045;-71
2021/03/06 03:42:36;;;;;;;0.20;0.20;;;-2.20;99.90;;;;;;5008706;28;20038;-71
2021/03/06 03:45:06;;;;;;;0.10;0.10;;;-2.10;99.90;;;;;;5035979;28;20060;-71
2021/03/06 03:47:33;;;;;;;0.98;0.43;;;-2.20;99.90;;;;;;5017681;28;20025;-71
2021/03/06 03:49:59;;;;;;;0.20;0.20;;;-2.20;99.90;;;;;;5008437;28;20052;-71
2021/03/06 03:52:24;;;;;;;0.30;0.30;;;-2.20;99.90;;;;;;5035695;28;20033;-71
2021/03/06 03:54:51;;;;;;;0.57;0.57;;;-2.40;99.90;;;;;;5033275;28;20032;-71
2021/03/06 03:57:17;;;;;;;0.80;0.80;;;-2.40;99.90;;;;;;5033284;28;20402;-71
2021/03/06 03:59:43;;;;;;;2.92;0.98;;;-2.40;99.90;;;;;;5017345;28;20057;-71
2021/03/06 04:02:09;;;;;;;2.90;1.60;;;-2.40;99.90;;;;;;5036168;28;20029;-71
2021/03/06 04:04:34;;;;;;;0.75;0.75;;;-2.50;99.90;;;;;;5031506;28;20029;-71
2021/03/06 04:07:01;;;;;;;0.20;0.20;;;-2.60;99.90;;;;;;5034195;28;20033;-72
2021/03/06 04:09:27;;;;;;;0.50;0.50;;;-2.60;99.90;;;;;;5032968;28;20021;-71
2021/03/06 04:11:53;;;;;;;0.67;0.67;;;-2.60;99.90;;;;;;5017530;28;20029;-71
2021/03/06 04:14:19;;;;;;;0.85;0.85;;;-2.60;99.90;;;;;;5030678;28;20045;-71
2021/03/06 04:16:45;;;;;;;0.20;0.20;;;-2.60;99.90;;;;;;5023508;28;20033;-71
2021/03/06 04:19:11;;;;;;;1.95;1.55;;;-2.50;99.90;;;;;;5027886;28;20022;-71
2021/03/06 04:21:37;;;;;;;0.23;0.23;;;-2.50;99.90;;;;;;5032371;28;20348;-71
2021/03/06 04:24:03;;;;;;;2.23;0.50;;;-2.40;99.90;;;;;;5032133;28;20025;-71
2021/03/06 04:26:29;;;;;;;0.80;0.80;;;-2.40;99.90;;;;;;5034723;28;20025;-71
2021/03/06 04:28:54;;;;;;;1.40;0.33;;;-2.30;99.90;;;;;;5033949;28;20065;-71
2021/03/06 04:31:20;;;;;;;0.33;0.33;;;-2.20;99.90;;;;;;5035803;28;20420;-71
2021/03/06 04:33:46;;;;;;;0.67;0.67;;;-2.10;99.90;;;;;;5031220;28;20040;-71
2021/03/06 04:36:12;;;;;;;0.40;0.40;;;-1.90;99.90;;;;;;5035562;28;20029;-71
2021/03/06 04:38:38;;;;;;;1.17;1.13;;;-1.80;99.90;;;;;;5029203;28;20026;-71
2021/03/06 04:41:03;;;;;;;0.10;0.10;;;-1.80;99.90;;;;;;5034523;28;20017;-71
2021/03/06 04:43:29;;;;;;;1.03;0.70;;;-1.70;99.90;;;;;;5035789;28;20096;-71
2021/03/06 04:45:55;;;;;;;0.40;0.40;;;-1.60;99.90;;;;;;5026223;28;20033;-71
2021/03/06 04:48:21;;;;;;;0.30;0.30;;;-1.60;99.90;;;;;;5031049;28;20022;-72
2021/03/06 04:50:47;;;;;;;0.27;0.27;;;-1.60;99.90;;;;;;5032249;28;20636;-71
2021/03/06 04:53:12;;;;;;;1.27;1.23;;;-1.60;99.90;;;;;;5034859;28;20397;-71
2021/03/06 04:55:38;;;;;;;0.90;0.90;;;-1.50;99.90;;;;;;5016270;28;20053;-71
2021/03/06 04:58:04;;;;;;;0.57;0.57;;;-1.50;99.90;;;;;;5009770;28;20029;-71
2021/03/06 05:00:31;;;;;;;1.43;1.10;;;-1.60;99.90;;;;;;5034028;28;20025;-71
2021/03/06 05:02:57;;;;;;;0.77;0.77;;;-1.70;99.90;;;;;;5034018;28;20029;-72
2021/03/06 05:05:23;;;;;;;0.93;0.93;;;-1.70;99.90;;;;;;5030196;28;20033;-71
2021/03/06 05:07:49;;;;;;;0.20;0.20;;;-1.60;99.90;;;;;;5017561;28;20732;-71
2021/03/06 05:10:14;;;;;;;2.00;1.23;;;-1.70;99.90;;;;;;5034710;28;20017;-72
2021/03/06 05:12:40;;;;;;;0.80;0.70;;;-1.80;99.90;;;;;;5023105;28;20029;-71
2021/03/06 05:15:07;;;;;;;1.60;1.50;;;-1.80;99.90;;;;;;5026644;28;20145;-71
2021/03/06 05:17:33;;;;;;;0.65;0.65;;;-1.80;99.90;;;;;;5026737;28;20421;-72
2021/03/06 05:19:59;;;;;;;0.50;0.50;;;-1.90;99.90;;;;;;5029275;28;20041;-71
2021/03/06 05:22:25;;;;;;;0.65;0.65;;;-2.00;99.90;;;;;;5031427;28;20030;-71
2021/03/06 05:24:51;;;;;;;0.52;0.52;;;-2.00;99.90;;;;;;5027717;28;20029;-71
2021/03/06 05:27:17;;;;;;;1.17;1.17;;;-2.00;99.90;;;;;;5034041;28;20044;-72
2021/03/06 05:29:42;;;;;;;0.57;0.57;;;-1.90;99.90;;;;;;5031490;28;20049;-71
2021/03/06 05:32:08;;;;;;;0.20;0.20;;;-2.00;99.90;;;;;;5026716;28;20037;-71
2021/03/06 05:34:35;;;;;;;0.60;0.60;;;-2.00;99.90;;;;;;5027755;28;20101;-71
2021/03/06 05:37:01;;;;;;;0.52;0.52;;;-1.90;99.90;;;;;;5014987;28;20052;-71
2021/03/06 05:39:26;;;;;;;1.83;1.17;;;-1.90;99.90;;;;;;5018615;28;20029;-71
2021/03/06 05:41:53;;;;;;;0.63;0.63;;;-1.90;99.90;;;;;;5027757;28;20030;-71
2021/03/06 05:44:19;;;;;;;0.98;0.77;;;-2.10;99.90;;;;;;5031434;28;20021;-72
2021/03/06 05:46:45;;;;;;;5.50;1.57;;;-2.10;99.90;;;;;;5024911;28;20133;-71
2021/03/06 05:49:13;;;;;;;0.52;0.50;;;-2.20;99.90;;;;;;5012215;28;20263;-71
2021/03/06 05:51:39;;;;;;;3.30;1.75;;;-2.20;99.90;;;;;;5016346;28;20025;-72
2021/03/06 05:54:10;;;;;;;0.70;0.57;;;-2.30;99.90;;;;;;5012061;28;20029;-71
2021/03/06 05:56:38;;;;;;;0.47;0.47;;;-2.30;99.90;;;;;;5034096;28;20359;-71
2021/03/06 05:59:06;;;;;;;2.53;2.08;;;-2.30;99.90;;;;;;5031820;28;20044;-71
2021/03/06 06:01:33;;;;;;;0.30;0.30;;;-2.30;99.90;;;;;;5032704;28;20072;-71
2021/03/06 06:04:02;;;;;;;1.95;1.85;;;-2.40;99.90;;;;;;5021866;28;20112;-71
2021/03/06 06:06:30;;;;;;;0.50;0.50;;;-2.40;99.90;;;;;;5012152;28;20064;-71
2021/03/06 06:08:58;;;;;;;2.55;1.83;;;-2.30;99.90;;;;;;5030185;28;20072;-72
2021/03/06 06:11:25;;;;;;;0.73;0.73;;;-2.40;99.90;;;;;;5032770;28;20109;-71
2021/03/06 06:13:51;;;;;;;28.45;1.73;;;-2.40;99.90;;;;;;5032967;28;20025;-71
2021/03/06 06:16:17;;;;;;;0.73;0.73;;;-2.40;99.90;;;;;;5025726;28;20048;-71
2021/03/06 06:18:44;;;;;;;1.05;1.05;;;-2.40;99.90;;;;;;5033556;28;20038;-71
2021/03/06 06:21:38;;;;;;;2.35;1.35;;;-2.40;99.90;;;;;;5016373;28;20106;-71
2021/03/06 06:24:05;;;;;;;0.68;0.68;;;-2.40;99.90;;;;;;5029721;28;20432;-71
2021/03/06 06:26:31;;;;;;;7.18;0.60;;;-2.50;99.90;;;;;;5032670;28;20117;-71
2021/03/06 06:28:56;;;;;;;0.50;0.50;;;-2.50;99.90;;;;;;5016315;28;20038;-71
2021/03/06 06:31:23;;;;;;;0.70;0.70;;;-2.40;99.90;;;;;;5026247;28;20045;-71
2021/03/06 06:33:53;;;;;;;0.57;0.57;;;-2.40;99.90;;;;;;5033871;28;20018;-72
2021/03/06 06:36:51;;;;;;;0.90;0.90;;;-2.30;99.90;;;;;;5025708;28;20057;-71
2021/03/06 06:39:28;;;;;;;1.08;1.08;;;-2.20;99.90;;;;;;4934083;29;20506;-71
2021/03/06 06:41:59;;;;;;;0.73;0.73;;;-2.20;99.90;;;;;;4915284;29;20041;-71
2021/03/06 06:44:27;;;;;;;0.73;0.73;;;-2.10;99.90;;;;;;4929793;29;20080;-72
2021/03/06 06:46:56;;;;;;;0.55;0.55;;;-2.10;99.90;;;;;;4918454;29;20059;-71
2021/03/06 06:49:23;;;;;;;0.77;0.77;;;-2.00;99.90;;;;;;4937026;29;20043;-71
2021/03/06 06:52:02;;;;;;;0.30;0.30;;;-1.90;99.90;;;;;;4936147;29;20031;-71
2021/03/06 06:54:29;;;;;;;0.70;0.70;;;-1.80;99.90;;;;;;4922131;29;20474;-71
2021/03/06 06:57:22;;;;;;;0.45;0.45;;;-1.70;99.90;;;;;;4933763;29;20103;-71
2021/03/06 06:59:58;;;;;;;0.35;0.35;;;-1.60;99.90;;;;;;4938978;29;20036;-71
2021/03/06 07:02:25;;;;;;;0.30;0.30;;;-1.50;99.90;;;;;;4917487;29;20087;-71
2021/03/06 07:04:58;;;;;;;0.55;0.55;;;-1.40;99.90;;;;;;4943343;29;20035;-72
2021/03/06 07:07:26;;;;;;;1.25;0.90;;;-1.20;99.90;;;;;;4917272;29;20036;-71
2021/03/06 07:10:09;;;;;;;0.57;0.57;;;-1.00;99.90;;;;;;4935146;29;20042;-72
2021/03/06 07:12:44;;;;;;;2.25;1.85;;;-0.80;99.90;;;;;;4917981;29;20027;-71
2021/03/06 07:15:20;;;;;;;0.28;0.28;;;-0.60;99.90;;;;;;4971907;28;20029;-71
2021/03/06 07:17:48;;;;;;;0.65;0.65;;;-0.30;99.90;;;;;;5027826;28;20466;-72
2021/03/06 07:20:20;;;;;;;1.83;0.98;;;0.20;99.90;;;;;;5035105;28;20033;-71
2021/03/06 07:22:46;;;;;;;0.40;0.40;;;0.50;99.90;;;;;;5014412;28;20073;-72
2021/03/06 07:25:12;;;;;;;0.88;0.88;;;0.90;99.90;;;;;;5032276;28;20021;-71
2021/03/06 07:27:38;;;;;;;0.53;0.50;;;1.20;99.90;;;;;;5034134;28;20056;-72
2021/03/06 07:30:08;;;;;;;1.47;0.67;;;1.50;99.90;;;;;;5036291;28;20512;-73
2021/03/06 07:32:37;;;;;;;0.43;0.43;;;2.00;99.90;;;;;;5016339;28;20025;-72
2021/03/06 07:35:06;;;;;;;0.50;0.50;;;2.30;99.90;;;;;;5017850;28;20034;-72
2021/03/06 07:37:32;;;;;;;1.63;1.52;;;2.80;99.90;;;;;;5032389;28;20424;-72
2021/03/06 07:40:00;;;;;;;0.32;0.32;;;3.00;99.90;;;;;;5012701;28;20034;-72
2021/03/06 07:42:42;;;;;;;0.43;0.43;;;2.60;99.90;;;;;;5028988;28;20055;-72
2021/03/06 07:45:10;;;;;;;0.95;0.80;;;2.20;99.90;;;;;;5028862;28;20026;-72
2021/03/06 07:47:40;;;;;;;0.30;0.30;;;2.00;99.90;;;;;;5032828;28;20037;-72
2021/03/06 07:50:19;;;;;;;0.43;0.43;;;1.70;99.90;;;;;;5030376;28;20049;-72
2021/03/06 07:52:45;;;;;;;2.40;1.65;;;1.50;99.90;;;;;;5016275;28;20064;-73
2021/03/06 07:55:13;;;;;;;0.60;0.60;;;1.40;99.90;;;;;;5031763;28;20021;-72
2021/03/06 07:58:02;;;;;;;3.65;1.20;;;1.30;99.90;;;;;;5033626;28;20033;-72
2021/03/06 08:00:37;;;;;;;2.15;0.73;;;1.10;99.90;;;;;;5020649;28;20053;-72
2021/03/06 08:03:26;;;;;;;1.10;0.75;;;1.20;99.90;;;;;;5016402;28;20077;-72
2021/03/06 08:06:02;;;;;;;0.90;0.90;;;1.30;99.90;;;;;;5032732;28;20445;-72
2021/03/06 08:08:36;;;;;;;1.30;0.75;;;1.30;99.90;;;;;;5014408;28;20041;-73
2021/03/06 08:11:06;;;;;;;1.25;1.17;;;1.30;99.90;;;;;;5035121;28;20075;-72
2021/03/06 08:13:36;;;;;;;1.45;1.35;;;1.20;99.90;;;;;;5033356;28;20336;-72
2021/03/06 08:16:23;;;;;;;0.40;0.40;;;1.30;99.90;;;;;;5017734;28;20121;-72
2021/03/06 08:18:49;;;;;;;0.85;0.85;;;1.50;99.90;;;;;;5028765;28;20057;-73
2021/03/06 08:21:32;;;;;;;2.13;1.23;;;2.00;99.90;;;;;;5012492;28;20064;-73
2021/03/06 08:24:19;;;;;;;0.50;0.50;;;2.30;99.90;;;;;;5015236;28;20026;-73
2021/03/06 08:26:51;;;;;;;1.25;1.15;;;2.50;99.90;;;;;;5034150;28;20253;-73
2021/03/06 08:29:23;;;;;;;0.63;0.63;;;2.70;99.90;;;;;;5034307;28;20537;-73
2021/03/06 08:31:57;;;;;;;0.90;0.60;;;2.70;99.90;;;;;;5007431;28;20352;-73
2021/03/06 08:34:28;;;;;;;0.50;0.50;;;2.90;99.90;;;;;;5031930;28;20480;-74
2021/03/06 08:37:16;;;;;;;0.60;0.60;;;3.20;99.90;;;;;;5033066;28;20059;-73
2021/03/06 08:39:42;;;;;;;5.32;1.08;;;3.40;99.90;;;;;;5027033;28;20079;-73
2021/03/06 08:42:09;;;;;;;1.13;1.10;;;3.50;99.90;;;;;;5005957;28;20432;-73
2021/03/06 08:44:35;;;;;;;0.38;0.38;;;3.50;99.90;;;;;;5016900;28;20049;-73
2021/03/06 08:47:01;;;;;;;1.17;1.17;;;3.60;99.90;;;;;;5030425;28;20408;-73
2021/03/06 08:49:27;;;;;;;5.05;1.45;;;3.60;99.90;;;;;;5006989;28;20029;-73
2021/03/06 08:51:54;;;;;;;3.08;1.65;;;3.50;99.90;;;;;;5029340;28;20033;-73
2021/03/06 08:54:22;;;;;;;1.63;1.00;;;3.60;99.90;;;;;;5032842;28;20029;-73
2021/03/06 08:56:49;;;;;;;1.05;0.93;;;3.80;99.90;;;;;;5032472;28;20025;-73
2021/03/06 08:59:15;;;;;;;1.25;1.15;;;3.90;99.90;;;;;;5015394;28;20412;-73
2021/03/06 09:01:42;;;;;;;2.33;2.13;;;4.10;99.90;;;;;;5033734;28;20367;-74
2021/03/06 09:04:08;;;;;;;7.43;1.25;;;4.40;99.90;;;;;;5016144;28;20028;-73
2021/03/06 09:06:43;;;;;;;0.85;0.85;;;4.80;99.90;;;;;;5011043;28;20041;-74
2021/03/06 09:09:10;;;;;;;4.38;1.73;;;5.10;99.90;;;;;;5012780;28;20052;-73
2021/03/06 09:11:54;;;;;;;;;;;5.40;99.90;;;;;;5014739;28;20116;-74
2021/03/06 09:14:20;;;;;;;0.20;0.20;;;5.40;99.90;;;;;;5029699;28;19909;-73
2021/03/06 09:16:49;;;;;;;1.17;1.08;;;5.50;99.90;;;;;;5034582;28;20105;-74
2021/03/06 09:19:24;;;;;;;0.60;0.50;;;5.50;99.90;;;;;;5029415;28;20025;-74
2021/03/06 09:22:02;;;;;;;0.30;0.30;;;5.50;99.90;;;;;;5030664;28;20029;-73
2021/03/06 09:24:48;;;;;;;2.70;1.50;;;5.30;99.90;;;;;;5012320;28;20025;-74
2021/03/06 09:27:15;;;;;;;1.40;1.30;;;5.10;99.90;;;;;;5031054;28;20109;-74
2021/03/06 09:29:42;;;;;;;4.28;1.48;;;5.00;99.90;;;;;;5013040;28;20424;-74
2021/03/06 09:32:09;;;;;;;0.70;0.70;;;4.90;99.90;;;;;;5031303;28;20041;-74
2021/03/06 09:34:35;;;;;;;10.32;1.75;;;4.90;99.90;;;;;;5032147;28;20037;-74
2021/03/06 09:37:14;;;;;;;0.68;0.52;;;4.90;99.90;;;;;;5014331;28;20025;-74
2021/03/06 09:39:40;;;;;;;0.65;0.57;;;5.10;99.90;;;;;;5028950;28;20030;-74
2021/03/06 09:42:06;;;;;;;0.38;0.38;;;5.30;99.90;;;;;;5015319;28;21772;-74
2021/03/06 09:44:32;;;;;;;2.97;1.92;;;5.50;99.90;;;;;;5029891;28;20476;-74
2021/03/06 09:47:00;;;;;;;0.53;0.53;;;5.70;99.90;;;;;;5032387;28;20067;-74
2021/03/06 09:49:36;;;;;;;1.13;0.85;;;5.70;99.90;;;;;;5012974;28;20022;-74
2021/03/06 09:52:02;;;;;;;1.35;1.15;;;5.60;99.90;;;;;;5031292;28;20025;-74
2021/03/06 09:54:35;;;;;;;4.95;1.08;;;5.60;99.90;;;;;;5032751;28;20025;-74
2021/03/06 09:57:03;;;;;;;1.23;0.93;;;5.60;99.90;;;;;;5030552;28;20017;-74
2021/03/06 09:59:35;;;;;;;1.25;0.98;;;5.50;99.90;;;;;;5010566;28;20021;-74
2021/03/06 10:02:10;;;;;;;1.23;0.98;;;5.60;99.90;;;;;;5012788;28;20032;-75
2021/03/06 10:04:36;;;;;;;0.45;0.45;;;5.50;99.90;;;;;;5021860;28;20022;-74
2021/03/06 10:07:08;;;;;;;0.80;0.30;;;5.50;99.90;;;;;;5030434;28;20339;-73
2021/03/06 10:09:34;;;;;;;0.17;0.13;;;5.50;99.90;;;;;;5032607;28;20560;-74
2021/03/06 10:12:09;;;;;;;0.88;0.45;;;5.50;99.90;;;;;;5031052;28;20048;-74
2021/03/06 10:14:35;;;;;;;0.45;0.45;;;5.60;99.90;;;;;;5031709;28;20044;-74
2021/03/06 10:17:03;;;;;;;1.02;0.82;;;5.80;99.90;;;;;;5013701;28;20026;-74
2021/03/06 10:19:32;;;;;;;0.10;0.10;;;6.00;99.90;;;;;;5012396;28;20030;-74
2021/03/06 10:22:07;;;;;;;0.30;0.28;;;6.10;99.90;;;;;;5029916;28;20361;-74
2021/03/06 10:24:52;;;;;;;0.00;0.00;;;6.30;99.90;;;;;;5032697;28;20316;-74
2021/03/06 10:27:30;;;;;;;0.20;0.20;;;6.20;99.90;;;;;;5015126;28;20029;-74
2021/03/06 10:30:20;;;;;;;0.10;0.10;;;6.10;99.90;;;;;;5033673;28;20049;-74
2021/03/06 10:32:47;;;;;;;1.27;0.93;;;5.90;99.90;;;;;;5017853;28;20121;-75
2021/03/06 10:35:38;;;;;;;8.02;0.55;;;6.10;99.90;;;;;;5032573;28;20033;-70
2021/03/06 10:38:13;;;;;;;0.10;0.10;;;6.00;99.90;;;;;;5035494;28;20033;-76
2021/03/06 10:40:50;;;;;;;0.05;0.05;;;6.10;99.90;;;;;;5033930;28;20029;-77
2021/03/06 10:43:36;;;;;;;0.43;0.43;;;6.10;99.90;;;;;;5031597;28;20026;-78
2021/03/06 10:46:34;;;;;;;0.10;0.10;;;5.90;99.90;;;;;;5016585;28;20038;-80
2021/03/06 10:49:06;;;;;;;0.22;0.22;;;5.90;99.90;;;;;;5034619;28;20438;-83
2021/03/06 10:51:42;;;;;;;0.03;0.03;;;5.90;99.90;;;;;;5026254;28;20112;-83
2021/03/06 10:54:08;;;;;;;0.20;0.20;;;5.90;99.90;;;;;;5028555;28;20038;-82
2021/03/06 10:56:35;;;;;;;0.10;0.10;;;6.00;99.90;;;;;;5018714;28;20420;-77
2021/03/06 10:59:02;;;;;;;0.10;0.10;;;6.20;99.90;;;;;;5035391;28;20384;-80
2021/03/06 11:01:32;;;;;;;0.65;0.65;;;6.40;99.90;;;;;;5030973;28;20109;-80
2021/03/06 11:03:58;;;;;;;0.38;0.30;;;6.30;99.90;;;;;;5035283;28;20052;-84
2021/03/06 11:06:23;;;;;;;0.00;0.00;;;6.50;99.90;;;;;;5030303;28;20343;-82
2021/03/06 11:09:04;;;;;;;3.40;0.70;;;6.60;99.90;;;;;;5035026;28;20034;-82
2021/03/06 11:11:30;;;;;;;1.55;0.50;;;6.70;99.90;;;;;;5004380;28;20026;-85
2021/03/06 11:13:56;;;;;;;0.00;0.00;;;6.60;99.90;;;;;;5019556;28;20430;-84
2021/03/06 11:16:48;;;;;;;0.47;0.35;;;6.80;99.90;;;;;;5010723;28;20021;-84
2021/03/06 11:19:14;;;;;;;1.42;0.28;;;6.90;99.90;;;;;;5015514;28;20086;-82
2021/03/06 11:21:39;;;;;;;0.37;0.23;;;6.80;99.90;;;;;;5011261;28;20375;-80
2021/03/06 11:24:06;;;;;;;0.47;0.47;;;6.80;99.90;;;;;;5012510;28;20147;-80
2021/03/06 11:26:31;;;;;;;0.30;0.30;;;6.90;99.90;;;;;;5005376;28;20048;-78
2021/03/06 11:28:57;;;;;;;0.00;0.00;;;7.20;99.90;;;;;;5015569;28;20137;-77
2021/03/06 11:31:24;;;;;;;4.70;0.70;;;7.40;99.90;;;;;;5012903;28;20059;-80
2021/03/06 11:33:49;;;;;;;0.10;0.10;;;7.80;99.90;;;;;;5030707;28;20017;-79
2021/03/06 11:36:15;;;;;;;0.03;0.03;;;7.70;99.90;;;;;;5015329;28;20030;-80
2021/03/06 11:38:41;;;;;;;0.13;0.13;;;7.40;99.10;;;;;;5010431;28;20048;-82
2021/03/06 11:41:06;;;;;;;0.00;0.00;;;7.50;99.90;;;;;;5027463;28;20029;-82
2021/03/06 11:43:32;;;;;;;0.00;0.00;;;7.70;99.90;;;;;;5016180;28;20029;-83
2021/03/06 11:45:59;;;;;;;0.17;0.17;;;7.80;98.90;;;;;;5026071;28;20030;-82
2021/03/06 11:48:25;;;;;;;0.00;0.00;;;7.90;99.40;;;;;;5013935;28;20037;-79
2021/03/06 11:50:50;;;;;;;0.00;0.00;;;7.90;97.00;;;;;;5010609;28;20293;-79
2021/03/06 11:53:16;;;;;;;0.00;0.00;;;7.80;98.30;;;;;;5013546;28;20032;-79
2021/03/06 11:55:43;;;;;;;0.43;0.43;;;7.50;97.20;;;;;;5030338;28;20047;-78
2021/03/06 11:58:09;;;;;;;0.00;0.00;;;7.40;98.50;;;;;;5011548;28;20510;-77
2021/03/06 12:00:36;;;;;;;0.90;0.83;;;7.30;99.00;;;;;;5015739;28;20068;-81
2021/03/06 12:03:03;;;;;;;20.17;0.45;;;7.50;99.90;;;;;;5025154;28;20263;-80
2021/03/06 12:05:29;;;;;;;0.00;0.00;;;7.60;97.80;;;;;;5013156;28;20021;-79
2021/03/06 12:07:55;;;;;;;0.00;0.00;;;7.70;99.10;;;;;;5024549;28;20064;-78
2021/03/06 12:10:24;;;;;;;0.10;0.10;;;7.60;98.00;;;;;;5006569;28;20026;-76
2021/03/06 12:12:50;;;;;;;0.10;0.10;;;7.60;97.70;;;;;;5007862;28;20087;-81
2021/03/06 12:15:17;;;;;;;0.00;0.00;;;7.60;97.90;;;;;;5013746;28;20375;-79
2021/03/06 12:17:43;;;;;;;;;;;7.70;99.10;;;;;;5016219;28;20048;-80
2021/03/06 12:20:10;;;;;;;0.57;0.57;;;7.60;99.20;;;;;;5016865;28;19928;-80
2021/03/06 12:22:36;;;;;;;0.20;0.20;;;7.40;98.80;;;;;;5012301;28;20041;-81
2021/03/06 12:25:03;;;;;;;0.10;0.10;;;7.20;98.60;;;;;;5014815;28;20033;-81
2021/03/06 12:27:29;;;;;;;0.13;0.13;;;7.20;99.70;;;;;;5017112;28;20044;-78
2021/03/06 12:29:55;;;;;;;3.33;1.20;;;7.10;99.90;;;;;;5015200;28;20049;-80
2021/03/06 12:32:21;;;;;;;0.10;0.10;;;7.00;99.40;;;;;;5016855;28;20018;-81
2021/03/06 12:34:47;;;;;;;0.00;0.00;;;6.80;99.90;;;;;;4998901;28;20494;-83
2021/03/06 12:37:13;;;;;;;0.10;0.10;;;6.70;99.90;;;;;;5013984;28;20073;-80
2021/03/06 12:39:38;;;;;;;0.10;0.10;;;6.50;99.90;;;;;;5010950;28;20660;-82
2021/03/06 12:42:05;;;;;;;0.15;0.15;;;6.20;99.90;;;;;;5026240;28;20036;-80
2021/03/06 12:44:31;;;;;;;0.70;0.32;;;6.10;99.90;;;;;;5009649;28;20025;-83
2021/03/06 12:46:57;;;;;;;0.07;0.07;;;6.10;99.90;;;;;;5018902;28;20112;-80
2021/03/06 12:49:23;;;;;;;1.88;0.52;;;6.20;99.90;;;;;;5015731;28;20298;-81
2021/03/06 12:51:50;;;;;;;0.10;0.10;;;6.10;99.90;;;;;;5016067;28;20025;-79
2021/03/06 12:54:16;;;;;;;0.10;0.10;;;6.00;99.90;;;;;;5033938;28;20459;-79
2021/03/06 12:56:41;;;;;;;0.10;0.10;;;6.00;99.90;;;;;;5011928;28;20033;-82
2021/03/06 12:59:07;;;;;;;0.08;0.08;;;5.90;99.90;;;;;;5016110;28;20044;-80
2021/03/06 13:01:33;;;;;;;0.30;0.30;;;5.90;99.90;;;;;;5012471;28;20037;-81
2021/03/06 13:03:59;;;;;;;0.00;0.00;;;5.90;99.90;;;;;;5027103;28;20029;-80
2021/03/06 13:06:25;;;;;;;1.70;0.73;;;6.00;99.90;;;;;;5030720;28;20022;-90